createdAt,value
2023-03-27T00:02:14.298Z,21.28
2023-03-27T00:06:14.383Z,21.27
2023-03-27T00:10:14.419Z,21.30
2023-03-27T00:14:14.591Z,21.26
2023-03-27T00:18:14.649Z,21.23
2023-03-27T00:22:14.738Z,21.23
2023-03-27T00:26:14.865Z,21.18
2023-03-27T00:30:14.919Z,21.14
2023-03-27T00:34:15.014Z,21.15
2023-03-27T00:38:15.107Z,21.15
2023-03-27T00:42:15.190Z,21.14
2023-03-27T00:46:15.418Z,21.18
2023-03-27T00:50:15.415Z,21.21
2023-03-27T00:54:15.457Z,21.21
2023-03-27T00:58:15.593Z,21.26
2023-03-27T01:02:15.679Z,21.26
2023-03-27T01:06:15.756Z,21.23
2023-03-27T01:10:15.837Z,21.20
2023-03-27T01:14:15.980Z,21.17
2023-03-27T01:18:16.041Z,21.13
2023-03-27T01:22:16.208Z,21.11
2023-03-27T01:26:16.334Z,21.07
2023-03-27T01:30:16.500Z,21.07
2023-03-27T01:34:16.645Z,21.10
2023-03-27T01:38:16.824Z,21.07
2023-03-27T01:42:16.950Z,21.06
2023-03-27T01:46:17.143Z,21.04
2023-03-27T01:50:17.263Z,21.01
2023-03-27T01:54:17.424Z,21.01
2023-03-27T01:58:17.568Z,21.03
2023-03-27T02:02:17.707Z,21.04
2023-03-27T02:06:17.890Z,21.04
2023-03-27T02:10:18.067Z,21.04
2023-03-27T02:14:18.221Z,21.06
2023-03-27T02:18:18.362Z,21.06
2023-03-27T02:22:18.512Z,21.01
2023-03-27T02:26:18.643Z,20.99
2023-03-27T02:30:18.818Z,21.03
2023-03-27T02:34:19.033Z,21.01
2023-03-27T02:38:19.206Z,20.96
2023-03-27T02:42:19.368Z,20.96
2023-03-27T02:46:20.503Z,20.90
2023-03-27T02:50:19.788Z,20.90
2023-03-27T02:54:19.944Z,20.91
2023-03-27T02:58:20.128Z,20.91
2023-03-27T03:02:20.423Z,20.86
2023-03-27T03:06:20.567Z,20.86
2023-03-27T03:10:20.780Z,20.87
2023-03-27T03:14:21.007Z,20.84
2023-03-27T03:18:21.190Z,20.86
2023-03-27T03:22:21.399Z,20.91
2023-03-27T03:26:21.565Z,20.90
2023-03-27T03:30:21.794Z,20.87
2023-03-27T03:34:21.984Z,20.86
2023-03-27T03:38:22.315Z,20.84
2023-03-27T03:42:23.861Z,20.83
2023-03-27T03:46:22.633Z,20.77
2023-03-27T03:50:22.604Z,20.73
2023-03-27T03:54:22.550Z,20.67
2023-03-27T03:58:34.459Z,20.67
2023-03-27T04:02:23.548Z,20.69
2023-03-27T04:06:22.477Z,20.67
2023-03-27T04:10:22.516Z,20.69
2023-03-27T04:14:22.396Z,20.72
2023-03-27T04:18:22.411Z,20.70
2023-03-27T04:22:22.320Z,20.73
2023-03-27T04:26:22.379Z,20.72
2023-03-27T04:30:22.260Z,20.66
2023-03-27T04:34:22.235Z,20.62
2023-03-27T04:38:22.208Z,20.60
2023-03-27T04:42:22.158Z,20.56
2023-03-27T04:46:22.147Z,20.42
2023-03-27T04:50:22.089Z,20.33
2023-03-27T04:54:22.025Z,20.36
2023-03-27T04:58:21.978Z,20.22
2023-03-27T05:02:22.010Z,20.18
2023-03-27T05:06:21.971Z,20.21
2023-03-27T05:10:22.228Z,20.31
2023-03-27T05:14:21.997Z,20.40
2023-03-27T05:18:21.941Z,20.45
2023-03-27T05:22:21.955Z,20.49
2023-03-27T05:26:21.983Z,20.50
2023-03-27T05:30:22.032Z,20.56
2023-03-27T05:34:22.052Z,20.52
2023-03-27T05:38:22.132Z,20.63
2023-03-27T05:42:22.446Z,21.01
2023-03-27T05:46:22.535Z,21.50
2023-03-27T05:50:22.576Z,21.87
2023-03-27T05:54:22.938Z,22.24
2023-03-27T05:58:22.914Z,22.54
2023-03-27T06:02:23.112Z,22.68
2023-03-27T06:06:22.926Z,22.81
2023-03-27T06:10:23.467Z,22.95
2023-03-27T06:14:23.128Z,23.07
2023-03-27T06:18:23.046Z,23.12
2023-03-27T06:22:23.012Z,23.18
2023-03-27T06:26:22.972Z,23.24
2023-03-27T06:30:22.946Z,23.34
2023-03-27T06:34:22.903Z,23.42
2023-03-27T06:38:22.872Z,23.48
2023-03-27T06:42:22.812Z,23.58
2023-03-27T06:46:27.554Z,23.66
2023-03-27T06:50:24.037Z,23.68
2023-03-27T06:54:22.704Z,23.80
2023-03-27T06:58:22.678Z,23.96
2023-03-27T07:02:22.961Z,24.06
2023-03-27T07:06:22.610Z,24.10
2023-03-27T07:10:22.591Z,24.17
2023-03-27T07:14:22.645Z,24.26
2023-03-27T07:18:23.080Z,24.33
2023-03-27T07:22:22.956Z,24.36
2023-03-27T07:26:22.813Z,24.38
2023-03-27T07:30:23.024Z,24.41
2023-03-27T07:34:22.954Z,24.44
2023-03-27T07:38:22.950Z,24.50
2023-03-27T07:42:22.985Z,24.56
2023-03-27T07:46:23.016Z,24.50
2023-03-27T07:50:23.508Z,24.44
2023-03-27T07:54:23.509Z,24.47
2023-03-27T07:58:23.112Z,24.47
2023-03-27T08:02:22.981Z,24.40
2023-03-27T08:06:22.942Z,24.41
2023-03-27T08:10:22.932Z,24.46
2023-03-27T08:14:23.011Z,24.48
2023-03-27T08:18:22.842Z,24.58
2023-03-27T08:22:23.000Z,24.65
2023-03-27T08:26:22.829Z,24.61
2023-03-27T08:30:22.699Z,24.64
2023-03-27T08:34:22.655Z,24.71
2023-03-27T08:38:26.988Z,24.79
2023-03-27T08:42:23.012Z,24.99
2023-03-27T08:46:23.040Z,25.11
2023-03-27T08:50:23.009Z,25.26
2023-03-27T08:54:22.503Z,25.33
2023-03-27T08:58:22.571Z,25.35
2023-03-27T09:02:22.416Z,25.28
2023-03-27T09:06:22.432Z,25.21
2023-03-27T09:10:22.567Z,25.15
2023-03-27T09:14:22.990Z,25.11
2023-03-27T09:18:22.935Z,25.08
2023-03-27T09:22:23.513Z,24.99
2023-03-27T09:26:23.324Z,24.99
2023-03-27T09:30:23.555Z,24.98
2023-03-27T09:34:24.042Z,24.95
2023-03-27T09:38:24.040Z,24.92
2023-03-27T09:42:24.086Z,24.94
2023-03-27T09:46:23.718Z,24.98
2023-03-27T09:50:26.253Z,25.19
2023-03-27T09:54:24.047Z,25.30
2023-03-27T09:58:23.548Z,25.42
2023-03-27T10:02:23.509Z,25.49
2023-03-27T10:06:23.516Z,25.57
2023-03-27T10:10:23.448Z,25.65
2023-03-27T10:14:23.567Z,25.65
2023-03-27T10:18:23.353Z,25.70
2023-03-27T10:22:23.337Z,25.77
2023-03-27T10:26:23.325Z,25.81
2023-03-27T10:30:23.524Z,25.84
2023-03-27T10:34:23.416Z,25.97
2023-03-27T10:38:24.046Z,25.96
2023-03-27T10:42:24.048Z,26.03
2023-03-27T10:46:24.109Z,26.00
2023-03-27T10:50:24.066Z,26.00
2023-03-27T10:54:24.614Z,25.99
2023-03-27T10:58:24.190Z,25.94
2023-03-27T11:02:24.591Z,26.03
2023-03-27T11:06:24.190Z,26.08
2023-03-27T11:10:24.576Z,26.17
2023-03-27T11:14:24.396Z,26.21
2023-03-27T11:18:24.564Z,26.20
2023-03-27T11:22:24.183Z,26.21
2023-03-27T11:26:24.127Z,26.24
2023-03-27T11:30:24.568Z,26.28
2023-03-27T11:34:28.842Z,26.40
2023-03-27T11:38:25.618Z,26.51
2023-03-27T11:42:24.282Z,26.54
2023-03-27T11:46:24.354Z,26.51
2023-03-27T11:50:24.395Z,26.38
2023-03-27T11:54:25.092Z,26.31
2023-03-27T11:58:24.717Z,26.23
2023-03-27T12:02:25.013Z,26.11
2023-03-27T12:06:25.056Z,26.07
2023-03-27T12:10:28.493Z,25.99
2023-03-27T12:14:34.427Z,25.89
2023-03-27T12:18:35.392Z,25.87
2023-03-27T12:22:26.108Z,25.81
2023-03-27T12:26:24.734Z,25.76
2023-03-27T12:30:24.706Z,25.69
2023-03-27T12:34:24.644Z,25.66
2023-03-27T12:38:24.617Z,25.59
2023-03-27T12:42:24.590Z,25.56
2023-03-27T12:46:24.582Z,25.50
2023-03-27T12:50:24.493Z,25.48
2023-03-27T12:54:24.439Z,25.45
2023-03-27T12:58:24.489Z,25.43
2023-03-27T13:02:24.457Z,25.42
2023-03-27T13:06:24.370Z,25.42
2023-03-27T13:10:24.318Z,25.39
2023-03-27T13:14:24.271Z,25.36
2023-03-27T13:18:24.258Z,25.38
2023-03-27T13:22:24.202Z,25.36
2023-03-27T13:26:24.201Z,25.33
2023-03-27T13:30:24.270Z,25.32
2023-03-27T13:34:24.387Z,25.29
2023-03-27T13:38:24.445Z,25.29
2023-03-27T13:42:24.568Z,25.29
2023-03-27T13:46:24.676Z,25.29
2023-03-27T13:50:24.712Z,25.28
2023-03-27T13:54:24.826Z,25.23
2023-03-27T13:58:24.943Z,25.25
2023-03-27T14:02:25.162Z,25.26
2023-03-27T14:06:25.094Z,25.26
2023-03-27T14:10:25.227Z,25.25
2023-03-27T14:14:25.600Z,25.23
2023-03-27T14:18:25.456Z,25.22
2023-03-27T14:22:25.580Z,25.18
2023-03-27T14:26:25.716Z,25.18
2023-03-27T14:30:25.813Z,25.16
2023-03-27T14:34:25.975Z,25.14
2023-03-27T14:38:26.112Z,25.12
2023-03-27T14:42:28.673Z,25.15
2023-03-27T14:46:26.340Z,25.23
2023-03-27T14:50:26.196Z,25.28
2023-03-27T14:54:26.176Z,25.30
2023-03-27T14:58:26.126Z,25.32
2023-03-27T15:02:26.142Z,25.33
2023-03-27T15:06:26.122Z,25.33
2023-03-27T15:10:26.088Z,25.28
2023-03-27T15:14:26.032Z,25.26
2023-03-27T15:18:25.971Z,25.19
2023-03-27T15:22:25.915Z,25.18
2023-03-27T15:26:25.921Z,25.16
2023-03-27T15:30:25.886Z,25.16
2023-03-27T15:34:25.820Z,25.15
2023-03-27T15:38:26.033Z,25.16
2023-03-27T15:42:26.149Z,25.21
2023-03-27T15:46:26.834Z,25.21
2023-03-27T15:50:26.341Z,25.22
2023-03-27T15:54:26.552Z,25.22
2023-03-27T15:58:26.609Z,25.19
2023-03-27T16:02:27.374Z,25.15
2023-03-27T16:06:26.937Z,25.15
2023-03-27T16:10:27.069Z,25.15
2023-03-27T16:14:27.240Z,25.11
2023-03-27T16:18:27.405Z,25.07
2023-03-27T16:22:27.806Z,24.99
2023-03-27T16:26:27.777Z,24.95
2023-03-27T16:30:27.994Z,24.92
2023-03-27T16:34:28.184Z,24.91
2023-03-27T16:38:28.423Z,24.88
2023-03-27T16:42:28.393Z,24.88
2023-03-27T16:46:28.457Z,24.84
2023-03-27T16:50:28.291Z,24.82
2023-03-27T16:54:28.265Z,24.81
2023-03-27T16:58:28.271Z,24.79
2023-03-27T17:02:28.294Z,24.77
2023-03-27T17:06:28.165Z,24.78
2023-03-27T17:10:28.125Z,24.78
2023-03-27T17:14:28.089Z,24.78
2023-03-27T17:18:28.165Z,24.75
2023-03-27T17:22:28.084Z,24.74
2023-03-27T17:26:28.084Z,24.72
2023-03-27T17:30:37.955Z,24.68
2023-03-27T17:34:28.993Z,24.67
2023-03-27T17:38:27.942Z,24.64
2023-03-27T17:42:28.175Z,24.63
2023-03-27T17:46:28.400Z,24.60
2023-03-27T17:50:28.566Z,24.58
2023-03-27T17:54:28.732Z,24.58
2023-03-27T17:58:28.925Z,24.57
2023-03-27T18:02:28.998Z,24.56
2023-03-27T18:06:28.936Z,24.53
2023-03-27T18:10:28.901Z,24.51
2023-03-27T18:14:28.955Z,24.50
2023-03-27T18:18:28.894Z,24.48
2023-03-27T18:22:28.887Z,24.48
2023-03-27T18:26:28.871Z,24.47
2023-03-27T18:30:30.990Z,24.47
2023-03-27T18:34:28.746Z,24.48
2023-03-27T18:38:28.690Z,24.46
2023-03-27T18:42:28.696Z,24.47
2023-03-27T18:46:28.662Z,24.47
2023-03-27T18:50:28.592Z,24.44
2023-03-27T18:54:28.588Z,24.41
2023-03-27T18:58:28.535Z,24.41
2023-03-27T19:02:28.502Z,24.41
2023-03-27T19:06:28.478Z,24.38
2023-03-27T19:10:28.411Z,24.38
2023-03-27T19:14:28.401Z,24.38
2023-03-27T19:18:28.390Z,24.38
2023-03-27T19:22:28.312Z,24.37
2023-03-27T19:26:28.287Z,24.36
2023-03-27T19:30:28.271Z,24.34
2023-03-27T19:34:40.077Z,24.31
2023-03-27T19:38:29.204Z,24.33
2023-03-27T19:42:28.145Z,24.30
2023-03-27T19:46:28.171Z,24.30
2023-03-27T19:50:28.065Z,24.30
2023-03-27T19:54:29.403Z,24.28
2023-03-27T19:58:28.246Z,24.28
2023-03-27T20:02:28.394Z,24.27
2023-03-27T20:06:28.342Z,24.28
2023-03-27T20:10:28.373Z,24.28
2023-03-27T20:14:28.400Z,24.27
2023-03-27T20:18:28.455Z,24.27
2023-03-27T20:22:28.468Z,24.27
2023-03-27T20:26:28.499Z,24.26
2023-03-27T20:30:28.521Z,24.27
2023-03-27T20:34:28.562Z,24.27
2023-03-27T20:38:28.680Z,24.24
2023-03-27T20:42:28.687Z,24.24
2023-03-27T20:46:28.751Z,24.24
2023-03-27T20:50:28.756Z,24.24
2023-03-27T20:54:28.815Z,24.21
2023-03-27T20:58:28.852Z,24.20
2023-03-27T21:02:29.062Z,24.21
2023-03-27T21:06:28.965Z,24.17
2023-03-27T21:10:28.995Z,24.17
2023-03-27T21:14:29.118Z,24.17
2023-03-27T21:18:29.106Z,24.19
2023-03-27T21:22:29.161Z,24.17
2023-03-27T21:26:29.239Z,24.19
2023-03-27T21:30:46.584Z,24.17
2023-03-27T21:34:30.331Z,24.21
2023-03-27T21:38:29.191Z,24.20
2023-03-27T21:42:29.130Z,24.17
2023-03-27T21:46:29.133Z,24.17
2023-03-27T21:50:29.073Z,24.17
2023-03-27T21:54:29.006Z,24.19
2023-03-27T21:58:29.075Z,24.16
2023-03-27T22:02:29.241Z,24.19
2023-03-27T22:06:29.203Z,24.16
2023-03-27T22:10:29.239Z,24.16
2023-03-27T22:14:29.330Z,24.16
2023-03-27T22:18:29.349Z,24.13
2023-03-27T22:22:29.412Z,24.14
2023-03-27T22:26:29.448Z,24.13
2023-03-27T22:30:29.531Z,24.13
2023-03-27T22:34:29.587Z,24.12
2023-03-27T22:38:29.716Z,24.13
2023-03-27T22:42:29.752Z,24.12
2023-03-27T22:46:29.856Z,24.10
2023-03-27T22:50:29.875Z,24.13
2023-03-27T22:54:29.915Z,24.09
2023-03-27T22:58:29.977Z,24.12
2023-03-27T23:02:30.110Z,24.09
2023-03-27T23:06:30.079Z,24.06
2023-03-27T23:10:30.121Z,24.05
2023-03-27T23:14:30.182Z,24.07
2023-03-27T23:18:30.257Z,24.03
2023-03-27T23:22:30.321Z,24.05
2023-03-27T23:26:30.362Z,24.02
2023-03-27T23:30:30.369Z,24.02
2023-03-27T23:34:30.431Z,24.03
2023-03-27T23:38:30.481Z,24.02
2023-03-27T23:42:30.517Z,24.02
2023-03-27T23:46:30.581Z,24.05
2023-03-27T23:50:30.604Z,24.02
2023-03-27T23:54:30.623Z,24.02
2023-03-27T23:58:30.718Z,24.03
